createdAt,value
2022-10-25T00:01:15.203Z,97977.84
2022-10-25T00:03:43.676Z,97982.09
2022-10-25T00:06:12.458Z,97972.03
2022-10-25T00:08:40.433Z,97927.28
2022-10-25T00:11:14.106Z,97948.13
2022-10-25T00:13:41.825Z,97976.44
2022-10-25T00:16:15.326Z,97965.50
2022-10-25T00:18:43.297Z,97959.44
2022-10-25T00:21:11.596Z,97957.06
2022-10-25T00:23:39.303Z,97964.16
2022-10-25T00:26:10.167Z,97952.38
2022-10-25T00:28:39.428Z,97965.03
2022-10-25T00:31:10.701Z,97958.41
2022-10-25T00:33:39.417Z,97953.22
2022-10-25T00:36:09.613Z,97967.03
2022-10-25T00:38:38.034Z,97974.47
2022-10-25T00:41:07.089Z,97973.00
2022-10-25T00:43:37.402Z,97969.84
2022-10-25T00:46:13.629Z,97957.28
2022-10-25T00:48:49.529Z,97969.00
2022-10-25T00:51:17.549Z,97971.34
2022-10-25T00:53:45.725Z,97978.41
2022-10-25T00:56:17.647Z,97985.03
2022-10-25T00:58:48.154Z,97981.53
2022-10-25T01:01:18.953Z,97982.25
2022-10-25T01:03:50.384Z,97975.25
2022-10-25T01:06:21.480Z,97966.63
2022-10-25T01:08:50.981Z,97958.69
2022-10-25T01:11:20.537Z,97958.28
2022-10-25T01:13:49.729Z,97959.50
2022-10-25T01:16:28.264Z,97950.72
2022-10-25T01:19:05.613Z,97939.72
2022-10-25T01:21:44.793Z,97950.66
2022-10-25T01:25:15.539Z,97961.97
2022-10-25T01:28:08.273Z,97972.53
2022-10-25T01:31:08.651Z,97965.06
2022-10-25T01:33:41.030Z,97970.09
2022-10-25T01:38:51.586Z,97967.81
2022-10-25T01:41:23.704Z,97978.75
2022-10-25T01:44:05.848Z,97974.00
2022-10-25T01:46:45.272Z,97976.31
2022-10-25T01:49:18.649Z,97987.13
2022-10-25T01:51:46.425Z,97985.38
2022-10-25T01:54:20.813Z,97978.91
2022-10-25T01:56:59.984Z,97971.34
2022-10-25T01:59:45.161Z,97946.66
2022-10-25T02:02:21.395Z,97980.34
2022-10-25T02:05:03.395Z,97981.47
2022-10-25T02:07:36.659Z,97986.25
2022-10-25T02:10:09.495Z,97976.00
2022-10-25T02:12:48.984Z,97973.44
2022-10-25T02:15:24.217Z,97980.91
2022-10-25T02:17:59.863Z,97987.66
2022-10-25T02:20:32.734Z,97975.19
2022-10-25T02:23:04.085Z,97958.47
2022-10-25T02:25:34.770Z,97991.28
2022-10-25T02:28:07.222Z,97994.44
2022-10-25T02:30:37.470Z,98004.66
2022-10-25T02:33:06.887Z,97992.00
2022-10-25T02:35:34.779Z,97994.72
2022-10-25T02:38:02.721Z,97980.28
2022-10-25T02:40:31.617Z,97987.75
2022-10-25T02:42:59.318Z,97982.66
2022-10-25T02:45:27.332Z,97972.84
2022-10-25T02:47:55.532Z,97979.75
2022-10-25T02:50:24.782Z,97979.47
2022-10-25T02:52:52.672Z,97980.66
2022-10-25T02:55:20.729Z,97977.75
2022-10-25T02:57:48.461Z,97971.84
2022-10-25T03:00:16.909Z,97972.84
2022-10-25T03:02:45.133Z,97968.97
2022-10-25T03:05:13.270Z,97968.25
2022-10-25T03:07:42.338Z,97971.25
2022-10-25T03:10:10.830Z,97969.72
2022-10-25T03:12:38.535Z,97972.72
2022-10-25T03:15:08.196Z,97959.03
2022-10-25T03:17:36.394Z,97976.47
2022-10-25T03:20:04.641Z,97980.44
2022-10-25T03:22:32.325Z,97984.53
2022-10-25T03:25:01.777Z,97987.72
2022-10-25T03:27:29.497Z,97993.63
2022-10-25T03:29:57.379Z,97986.94
2022-10-25T03:32:25.448Z,97991.63
2022-10-25T03:34:53.336Z,97990.81
2022-10-25T03:37:21.006Z,97993.91
2022-10-25T03:39:49.125Z,97989.69
2022-10-25T03:42:18.166Z,97995.16
2022-10-25T03:44:46.063Z,97987.66
2022-10-25T03:47:14.116Z,97987.72
2022-10-25T03:49:42.030Z,97998.75
2022-10-25T03:52:10.169Z,97995.59
2022-10-25T03:54:38.548Z,98002.47
2022-10-25T03:57:06.445Z,97997.88
2022-10-25T03:59:35.733Z,97997.97
2022-10-25T04:02:04.126Z,98007.38
2022-10-25T04:04:32.514Z,98007.31
2022-10-25T04:07:00.238Z,98003.50
2022-10-25T04:09:28.385Z,98003.56
2022-10-25T04:11:56.395Z,98008.25
2022-10-25T04:14:24.753Z,98008.25
2022-10-25T04:16:54.772Z,98006.75
2022-10-25T04:19:22.708Z,98002.06
2022-10-25T04:21:50.482Z,98005.25
2022-10-25T04:24:18.665Z,98012.28
2022-10-25T04:26:46.486Z,98010.34
2022-10-25T04:29:15.886Z,98011.50
2022-10-25T04:31:44.083Z,98010.34
2022-10-25T04:34:13.476Z,98011.50
2022-10-25T04:36:41.273Z,98007.69
2022-10-25T04:39:09.507Z,98005.31
2022-10-25T04:41:37.272Z,97998.69
2022-10-25T04:44:05.434Z,98006.81
2022-10-25T04:46:33.503Z,98001.06
2022-10-25T04:49:01.411Z,98002.41
2022-10-25T04:51:30.637Z,98003.81
2022-10-25T04:53:58.674Z,98004.31
2022-10-25T04:56:26.380Z,98005.38
2022-10-25T04:58:54.245Z,98007.75
2022-10-25T05:01:22.316Z,98008.66
2022-10-25T05:03:50.297Z,98004.03
2022-10-25T05:06:19.609Z,97997.03
2022-10-25T05:08:50.674Z,98000.44
2022-10-25T05:11:21.188Z,97999.38
2022-10-25T05:13:49.885Z,97986.78
2022-10-25T05:16:22.478Z,97996.03
2022-10-25T05:18:51.609Z,97988.91
2022-10-25T05:21:19.596Z,97992.88
2022-10-25T05:23:48.921Z,97984.94
2022-10-25T05:26:18.427Z,97974.66
2022-10-25T05:28:49.240Z,97995.53
2022-10-25T05:31:18.939Z,97989.91
2022-10-25T05:33:49.375Z,97998.44
2022-10-25T05:36:17.241Z,97993.16
2022-10-25T05:38:45.514Z,97998.41
2022-10-25T05:41:16.379Z,97999.44
2022-10-25T05:43:45.259Z,97997.41
2022-10-25T05:46:14.634Z,98000.41
2022-10-25T05:48:48.156Z,98011.63
2022-10-25T05:51:33.908Z,98016.63
2022-10-25T05:54:05.172Z,98008.97
2022-10-25T05:56:35.539Z,98022.09
2022-10-25T05:59:07.551Z,98013.88
2022-10-25T06:01:36.343Z,98022.09
2022-10-25T06:04:04.649Z,98032.66
2022-10-25T06:06:32.426Z,98039.50
2022-10-25T06:09:02.121Z,98015.63
2022-10-25T06:11:30.287Z,98044.53
2022-10-25T06:13:59.751Z,98045.88
2022-10-25T06:16:27.712Z,98053.88
2022-10-25T06:18:55.884Z,98054.06
2022-10-25T06:21:26.032Z,98053.53
2022-10-25T06:23:54.439Z,98064.03
2022-10-25T06:26:24.273Z,98065.34
2022-10-25T06:28:54.475Z,98067.09
2022-10-25T06:31:24.722Z,98062.09
2022-10-25T06:33:53.497Z,98071.50
2022-10-25T06:36:23.353Z,98074.59
2022-10-25T06:38:51.977Z,98077.06
2022-10-25T06:41:22.262Z,98081.13
2022-10-25T06:43:50.647Z,98092.13
2022-10-25T06:46:23.545Z,98085.34
2022-10-25T06:48:53.293Z,98086.38
2022-10-25T06:51:21.478Z,98091.78
2022-10-25T06:53:54.813Z,98091.34
2022-10-25T06:56:22.977Z,98091.50
2022-10-25T06:58:51.094Z,98091.50
2022-10-25T07:01:23.431Z,98096.28
2022-10-25T07:03:53.754Z,98101.09
2022-10-25T07:06:24.646Z,98108.41
2022-10-25T07:08:55.101Z,98110.94
2022-10-25T07:11:23.560Z,98116.50
2022-10-25T07:13:51.467Z,98125.22
2022-10-25T07:16:21.707Z,98127.75
2022-10-25T07:18:51.300Z,98118.72
2022-10-25T07:21:21.206Z,98128.56
2022-10-25T07:23:50.474Z,98132.69
2022-10-25T07:26:20.865Z,98131.00
2022-10-25T07:28:50.992Z,98132.09
2022-10-25T07:31:21.721Z,98112.94
2022-10-25T07:33:52.669Z,98115.47
2022-10-25T07:36:21.125Z,98105.41
2022-10-25T07:38:49.218Z,98085.94
2022-10-25T07:41:17.081Z,98095.44
2022-10-25T07:43:45.173Z,98091.66
2022-10-25T07:46:12.923Z,98084.66
2022-10-25T07:48:41.218Z,98084.00
2022-10-25T07:51:12.786Z,98089.09
2022-10-25T07:53:40.688Z,98088.97
2022-10-25T07:56:13.093Z,98086.75
2022-10-25T07:58:41.854Z,98081.13
2022-10-25T08:01:11.201Z,98078.28
2022-10-25T08:03:39.349Z,98083.13
2022-10-25T08:06:07.680Z,98077.03
2022-10-25T08:08:37.685Z,98075.63
2022-10-25T08:11:08.048Z,98076.44
2022-10-25T08:13:36.731Z,98075.63
2022-10-25T08:16:05.694Z,98077.22
2022-10-25T08:18:34.589Z,98077.69
2022-10-25T08:21:04.263Z,98080.44
2022-10-25T08:23:33.288Z,98074.13
2022-10-25T08:26:03.067Z,98071.91
2022-10-25T08:28:39.802Z,98074.69
2022-10-25T08:31:08.431Z,98065.03
2022-10-25T08:33:37.502Z,98074.53
2022-10-25T08:36:05.617Z,98080.06
2022-10-25T08:38:33.698Z,98085.34
2022-10-25T08:41:10.202Z,98093.25
2022-10-25T08:44:19.704Z,98096.78
2022-10-25T08:46:58.286Z,98103.09
2022-10-25T08:49:34.089Z,98107.09
2022-10-25T08:52:02.887Z,98117.06
2022-10-25T08:54:36.452Z,98118.31
2022-10-25T08:57:16.643Z,98123.78
2022-10-25T08:59:50.809Z,98119.91
2022-10-25T09:02:24.500Z,98116.50
2022-10-25T09:04:52.869Z,98120.41
2022-10-25T09:07:43.019Z,98121.53
2022-10-25T09:10:22.605Z,98124.88
2022-10-25T09:12:59.642Z,98133.97
2022-10-25T09:15:42.857Z,98132.31
2022-10-25T09:18:16.425Z,98137.69
2022-10-25T09:20:49.822Z,98122.06
2022-10-25T09:23:25.854Z,98122.94
2022-10-25T09:26:02.044Z,98126.09
2022-10-25T09:28:48.493Z,98116.47
2022-10-25T09:31:19.275Z,98127.78
2022-10-25T09:33:49.373Z,98123.44
2022-10-25T09:36:17.990Z,98132.22
2022-10-25T09:38:50.124Z,98132.75
2022-10-25T09:41:23.657Z,98137.53
2022-10-25T09:43:57.624Z,98145.22
2022-10-25T09:46:31.594Z,98150.63
2022-10-25T09:49:03.673Z,98152.38
2022-10-25T09:51:38.997Z,98156.38
2022-10-25T09:54:16.260Z,98147.19
2022-10-25T09:56:44.444Z,98151.59
2022-10-25T09:59:15.478Z,98145.84
2022-10-25T10:01:44.147Z,98154.94
2022-10-25T10:04:26.188Z,98158.75
2022-10-25T10:07:00.071Z,98164.66
2022-10-25T10:09:32.381Z,98157.22
2022-10-25T10:12:04.012Z,98157.03
2022-10-25T10:14:39.056Z,98157.69
2022-10-25T10:17:12.760Z,98156.88
2022-10-25T10:19:41.465Z,98167.22
2022-10-25T10:22:14.012Z,98157.56
2022-10-25T10:24:44.446Z,98161.25
2022-10-25T10:27:25.208Z,98163.66
2022-10-25T10:29:59.720Z,98156.44
2022-10-25T10:32:32.758Z,98154.66
2022-10-25T10:35:02.441Z,98151.94
2022-10-25T10:37:32.136Z,98147.84
2022-10-25T10:40:01.535Z,98143.97
2022-10-25T10:42:35.443Z,98143.41
2022-10-25T10:45:20.588Z,98147.19
2022-10-25T10:47:57.982Z,98145.00
2022-10-25T10:50:28.876Z,98143.28
2022-10-25T10:53:00.503Z,98150.31
2022-10-25T10:55:32.215Z,98134.81
2022-10-25T10:58:04.302Z,98155.53
2022-10-25T11:00:34.907Z,98157.22
2022-10-25T11:03:03.046Z,98148.91
2022-10-25T11:05:32.447Z,98149.31
2022-10-25T11:08:02.605Z,98151.97
2022-10-25T11:10:33.249Z,98158.81
2022-10-25T11:13:13.446Z,98162.81
2022-10-25T11:16:17.828Z,98156.28
2022-10-25T11:19:24.950Z,98159.00
2022-10-25T11:22:20.753Z,98156.19
2022-10-25T11:25:00.289Z,98156.44
2022-10-25T11:27:41.658Z,98156.38
2022-10-25T11:30:15.095Z,98154.16
2022-10-25T11:33:03.277Z,98165.75
2022-10-25T11:35:45.510Z,98158.66
2022-10-25T11:38:16.580Z,98156.28
2022-10-25T11:40:53.798Z,98149.25
2022-10-25T11:43:42.273Z,98157.94
2022-10-25T11:46:22.742Z,98153.84
2022-10-25T11:49:05.042Z,98143.00
2022-10-25T11:51:42.165Z,98147.38
2022-10-25T11:54:24.153Z,98143.81
2022-10-25T11:57:06.378Z,98147.44
2022-10-25T11:59:44.623Z,98138.25
2022-10-25T12:02:33.327Z,98138.25
2022-10-25T12:05:19.973Z,98143.00
2022-10-25T12:07:54.154Z,98138.56
2022-10-25T12:10:33.515Z,98137.19
2022-10-25T12:13:05.069Z,98128.84
2022-10-25T12:15:38.165Z,98137.16
2022-10-25T12:18:08.399Z,98133.09
2022-10-25T12:20:38.930Z,98131.63
2022-10-25T12:23:13.383Z,98129.03
2022-10-25T12:25:47.117Z,98124.91
2022-10-25T12:28:24.144Z,98123.66
2022-10-25T12:30:57.777Z,98124.13
2022-10-25T12:33:32.500Z,98122.06
2022-10-25T12:36:05.522Z,98094.19
2022-10-25T12:38:36.105Z,98122.72
2022-10-25T12:41:09.699Z,98121.22
2022-10-25T12:43:45.151Z,98127.44
2022-10-25T12:46:27.110Z,98133.84
2022-10-25T12:49:24.514Z,98135.28
2022-10-25T12:52:11.066Z,98135.78
2022-10-25T12:54:52.604Z,98138.38
2022-10-25T12:57:28.752Z,98137.53
2022-10-25T13:00:09.948Z,98139.22
2022-10-25T13:03:10.245Z,98138.31
2022-10-25T13:06:18.820Z,98148.50
2022-10-25T13:08:48.922Z,98139.41
2022-10-25T13:11:17.049Z,98136.28
2022-10-25T13:13:50.506Z,98142.97
2022-10-25T13:16:25.730Z,98138.97
2022-10-25T13:19:30.567Z,98140.56
2022-10-25T13:22:46.814Z,98135.94
2022-10-25T13:25:39.183Z,98134.03
2022-10-25T13:28:30.506Z,98136.09
2022-10-25T13:31:31.500Z,98132.91
2022-10-25T13:34:22.805Z,98146.13
2022-10-25T13:36:52.536Z,98144.47
2022-10-25T13:39:25.600Z,98143.13
2022-10-25T13:42:00.394Z,98142.22
2022-10-25T13:44:29.213Z,98124.56
2022-10-25T13:46:57.116Z,98142.53
2022-10-25T13:49:34.817Z,98154.75
2022-10-25T13:52:05.976Z,98139.81
2022-10-25T13:54:46.921Z,98146.19
2022-10-25T13:57:53.878Z,98143.13
2022-10-25T14:00:51.596Z,98149.84
2022-10-25T14:03:34.481Z,98136.03
2022-10-25T14:06:24.828Z,98154.19
2022-10-25T14:09:00.269Z,98155.94
2022-10-25T14:11:37.533Z,98156.28
2022-10-25T14:14:17.121Z,98161.59
2022-10-25T14:16:59.919Z,98164.38
2022-10-25T14:19:35.291Z,98171.28
2022-10-25T14:22:15.348Z,98165.88
2022-10-25T14:24:47.671Z,98171.44
2022-10-25T14:27:30.845Z,98170.75
2022-10-25T14:30:23.869Z,98168.47
2022-10-25T14:32:53.826Z,98174.81
2022-10-25T14:35:22.501Z,98167.84
2022-10-25T14:37:50.689Z,98157.44
2022-10-25T14:40:21.641Z,98158.31
2022-10-25T14:42:50.520Z,98157.94
2022-10-25T14:45:23.752Z,98158.31
2022-10-25T14:47:52.385Z,98160.88
2022-10-25T14:50:23.213Z,98166.41
2022-10-25T14:52:53.661Z,98174.38
2022-10-25T14:55:31.289Z,98165.22
2022-10-25T14:58:02.373Z,98178.16
2022-10-25T15:00:32.187Z,98182.31
2022-10-25T15:03:02.705Z,98176.16
2022-10-25T15:05:30.665Z,98189.06
2022-10-25T15:08:00.991Z,98170.69
2022-10-25T15:10:40.691Z,98169.47
2022-10-25T15:13:16.223Z,98180.34
2022-10-25T15:15:47.102Z,98193.75
2022-10-25T15:18:32.070Z,98196.59
2022-10-25T15:21:05.700Z,98194.31
2022-10-25T15:23:34.121Z,98193.75
2022-10-25T15:26:24.106Z,98187.63
2022-10-25T15:28:54.351Z,98190.88
2022-10-25T15:31:25.259Z,98203.97
2022-10-25T15:33:58.030Z,98206.34
2022-10-25T15:36:27.678Z,98201.94
2022-10-25T15:39:16.745Z,98199.09
2022-10-25T15:41:45.086Z,98203.72
2022-10-25T15:44:13.165Z,98207.94
2022-10-25T15:46:42.251Z,98213.00
2022-10-25T15:49:13.325Z,98217.81
2022-10-25T15:51:43.115Z,98213.59
2022-10-25T15:54:15.631Z,98219.34
2022-10-25T15:56:43.683Z,98216.25
2022-10-25T15:59:12.522Z,98225.78
2022-10-25T16:01:45.407Z,98225.56
2022-10-25T16:04:15.080Z,98230.97
2022-10-25T16:06:43.233Z,98227.53
2022-10-25T16:09:11.398Z,98229.41
2022-10-25T16:11:44.984Z,98217.56
2022-10-25T16:14:21.353Z,98222.91
2022-10-25T16:16:51.407Z,98225.34
2022-10-25T16:19:21.488Z,98217.22
2022-10-25T16:21:49.882Z,98225.88
2022-10-25T16:24:18.007Z,98225.94
2022-10-25T16:26:48.436Z,98228.31
2022-10-25T16:29:18.213Z,98231.44
2022-10-25T16:31:46.353Z,98230.28
2022-10-25T16:34:17.249Z,98229.84
2022-10-25T16:36:45.464Z,98222.63
2022-10-25T16:39:14.044Z,98232.22
2022-10-25T16:41:43.497Z,98236.91
2022-10-25T16:44:12.931Z,98242.38
2022-10-25T16:46:41.013Z,98236.75
2022-10-25T16:49:09.624Z,98243.66
2022-10-25T16:51:40.337Z,98247.28
2022-10-25T16:54:10.867Z,98247.72
2022-10-25T16:56:39.514Z,98252.06
2022-10-25T16:59:07.574Z,98254.00
2022-10-25T17:01:38.939Z,98256.19
2022-10-25T17:04:11.415Z,98247.97
2022-10-25T17:06:42.156Z,98260.81
2022-10-25T17:09:10.737Z,98259.94
2022-10-25T17:11:38.694Z,98264.72
2022-10-25T17:14:06.945Z,98261.09
2022-10-25T17:16:34.699Z,98260.31
2022-10-25T17:19:04.130Z,98265.25
2022-10-25T17:21:33.313Z,98263.94
2022-10-25T17:24:03.312Z,98267.50
2022-10-25T17:26:31.372Z,98268.28
2022-10-25T17:29:00.794Z,98275.19
2022-10-25T17:31:29.422Z,98282.09
2022-10-25T17:33:57.671Z,98282.09
2022-10-25T17:36:25.892Z,98282.97
2022-10-25T17:38:54.924Z,98282.47
2022-10-25T17:41:24.214Z,98283.16
2022-10-25T17:43:55.961Z,98290.75
2022-10-25T17:46:26.812Z,98291.72
2022-10-25T17:48:56.454Z,98285.13
2022-10-25T17:51:24.557Z,98288.84
2022-10-25T17:53:54.986Z,98292.00
2022-10-25T17:56:26.187Z,98297.50
2022-10-25T17:58:54.972Z,98283.81
2022-10-25T18:01:26.108Z,98293.81
2022-10-25T18:03:55.101Z,98296.28
2022-10-25T18:06:25.374Z,98297.88
2022-10-25T18:08:57.780Z,98295.56
2022-10-25T18:11:28.684Z,98297.69
2022-10-25T18:13:58.656Z,98305.38
2022-10-25T18:16:28.861Z,98292.06
2022-10-25T18:18:59.087Z,98304.69
2022-10-25T18:21:27.432Z,98307.75
2022-10-25T18:23:55.738Z,98308.47
2022-10-25T18:26:23.545Z,98309.06
2022-10-25T18:28:53.417Z,98303.44
2022-10-25T18:31:22.411Z,98311.97
2022-10-25T18:33:50.297Z,98304.22
2022-10-25T18:36:20.341Z,98300.53
2022-10-25T18:38:49.246Z,98308.09
2022-10-25T18:41:19.032Z,98302.19
2022-10-25T18:43:47.819Z,98314.28
2022-10-25T18:46:17.196Z,98303.06
2022-10-25T18:48:46.004Z,98305.81
2022-10-25T18:51:14.945Z,98313.47
2022-10-25T18:53:42.973Z,98307.53
2022-10-25T18:56:12.257Z,98298.72
2022-10-25T18:58:40.344Z,98311.94
2022-10-25T19:01:09.404Z,98296.75
2022-10-25T19:03:39.586Z,98307.72
2022-10-25T19:06:09.010Z,98321.75
2022-10-25T19:08:37.798Z,98319.72
2022-10-25T19:11:06.601Z,98323.13
2022-10-25T19:13:35.386Z,98329.28
2022-10-25T19:16:04.035Z,98327.91
2022-10-25T19:18:32.963Z,98335.50
2022-10-25T19:21:04.334Z,98330.59
2022-10-25T19:23:32.841Z,98331.91
2022-10-25T19:26:03.488Z,98329.88
2022-10-25T19:28:32.092Z,98330.69
2022-10-25T19:31:05.821Z,98329.81
2022-10-25T19:33:34.241Z,98336.88
2022-10-25T19:36:08.042Z,98331.41
2022-10-25T19:38:36.850Z,98342.56
2022-10-25T19:41:08.889Z,98347.09
2022-10-25T19:43:37.838Z,98342.97
2022-10-25T19:46:07.806Z,98345.72
2022-10-25T19:48:36.285Z,98343.44
2022-10-25T19:51:07.686Z,98350.03
2022-10-25T19:53:35.790Z,98345.72
2022-10-25T19:56:06.635Z,98342.75
2022-10-25T19:58:34.666Z,98347.06
2022-10-25T20:01:05.212Z,98344.94
2022-10-25T20:03:33.634Z,98341.06
2022-10-25T20:06:03.431Z,98343.34
2022-10-25T20:08:35.417Z,98343.34
2022-10-25T20:11:03.408Z,98332.22
2022-10-25T20:13:32.032Z,98339.47
2022-10-25T20:16:00.149Z,98339.84
2022-10-25T20:18:31.381Z,98340.19
2022-10-25T20:21:01.840Z,98345.66
2022-10-25T20:23:30.074Z,98347.63
2022-10-25T20:25:59.368Z,98348.63
2022-10-25T20:28:27.329Z,98355.25
2022-10-25T20:31:03.086Z,98347.41
2022-10-25T20:33:31.148Z,98351.19
2022-10-25T20:36:02.450Z,98355.88
2022-10-25T20:38:30.927Z,98353.28
2022-10-25T20:41:05.801Z,98354.16
2022-10-25T20:43:34.197Z,98357.50
2022-10-25T20:46:02.102Z,98342.81
2022-10-25T20:48:30.155Z,98359.53
2022-10-25T20:50:58.019Z,98366.47
2022-10-25T20:53:26.022Z,98353.97
2022-10-25T20:55:54.070Z,98354.97
2022-10-25T20:58:24.101Z,98352.34
2022-10-25T21:00:54.524Z,98361.22
2022-10-25T21:03:22.901Z,98369.28
2022-10-25T21:05:53.386Z,98366.91
2022-10-25T21:08:22.820Z,98363.72
2022-10-25T21:10:54.664Z,98357.25
2022-10-25T21:13:24.396Z,98362.00
2022-10-25T21:15:52.837Z,98359.84
2022-10-25T21:18:21.361Z,98361.03
2022-10-25T21:20:49.661Z,98359.63
2022-10-25T21:23:17.546Z,98359.19
2022-10-25T21:25:45.226Z,98358.94
2022-10-25T21:28:13.293Z,98357.34
2022-10-25T21:30:43.625Z,98355.88
2022-10-25T21:33:11.475Z,98357.09
2022-10-25T21:35:39.368Z,98353.75
2022-10-25T21:38:07.318Z,98363.50
2022-10-25T21:40:35.034Z,98358.13
2022-10-25T21:43:03.112Z,98356.53
2022-10-25T21:45:31.202Z,98364.53
2022-10-25T21:48:00.433Z,98357.09
2022-10-25T21:50:28.429Z,98360.53
2022-10-25T21:52:56.305Z,98356.22
2022-10-25T21:55:24.057Z,98355.75
2022-10-25T21:57:54.485Z,98356.69
2022-10-25T22:00:22.460Z,98355.13
2022-10-25T22:02:50.403Z,98369.56
2022-10-25T22:05:19.966Z,98362.88
2022-10-25T22:07:48.313Z,98357.75
2022-10-25T22:10:18.246Z,98360.03
2022-10-25T22:12:46.853Z,98360.81
2022-10-25T22:15:15.021Z,98365.50
2022-10-25T22:17:43.001Z,98363.31
2022-10-25T22:20:11.453Z,98363.31
2022-10-25T22:22:40.997Z,98355.69
2022-10-25T22:25:09.454Z,98356.31
2022-10-25T22:27:37.455Z,98357.22
2022-10-25T22:30:05.890Z,98364.53
2022-10-25T22:32:33.836Z,98355.19
2022-10-25T22:35:01.612Z,98361.38
2022-10-25T22:37:29.588Z,98356.56
2022-10-25T22:39:58.852Z,98359.66
2022-10-25T22:42:26.915Z,98352.50
2022-10-25T22:44:54.943Z,98351.13
2022-10-25T22:47:22.940Z,98359.56
2022-10-25T22:49:50.774Z,98357.94
2022-10-25T22:52:18.672Z,98352.59
2022-10-25T22:54:47.142Z,98357.16
2022-10-25T22:57:16.476Z,98360.25
2022-10-25T22:59:44.168Z,98366.38
2022-10-25T23:02:12.050Z,98365.72
2022-10-25T23:04:39.912Z,98365.47
2022-10-25T23:07:07.799Z,98367.25
2022-10-25T23:09:35.490Z,98372.41
2022-10-25T23:12:03.771Z,98375.66
2022-10-25T23:14:32.957Z,98372.72
2022-10-25T23:17:00.972Z,98364.28
2022-10-25T23:19:28.772Z,98355.75
2022-10-25T23:21:56.629Z,98365.88
2022-10-25T23:24:24.338Z,98368.63
2022-10-25T23:26:52.485Z,98370.63
2022-10-25T23:29:20.380Z,98366.78
2022-10-25T23:31:49.714Z,98373.22
2022-10-25T23:34:17.614Z,98378.34
2022-10-25T23:36:45.553Z,98379.13
2022-10-25T23:39:13.337Z,98381.06
2022-10-25T23:41:41.499Z,98383.09
2022-10-25T23:44:09.174Z,98380.81
2022-10-25T23:46:37.081Z,98379.69
2022-10-25T23:49:06.491Z,98386.97
2022-10-25T23:51:34.351Z,98389.47
2022-10-25T23:54:02.028Z,98388.19
2022-10-25T23:56:30.195Z,98388.25
2022-10-25T23:58:57.916Z,98389.50
